sensor_id;sensor_type;location;lat;lon;timestamp;pressure;altitude;pressure_sealevel;temperature;humidity
54948;BME280;41113;41.882;12.530;2023-06-01T00:01:16;100987.13;;;18.32;84.28
54948;BME280;41113;41.882;12.530;2023-06-01T00:03:42;100985.63;;;18.30;84.21
54948;BME280;41113;41.882;12.530;2023-06-01T00:06:07;100987.19;;;18.24;84.96
54948;BME280;41113;41.882;12.530;2023-06-01T00:08:33;100986.38;;;18.16;84.80
54948;BME280;41113;41.882;12.530;2023-06-01T00:10:58;100983.13;;;18.20;84.69
54948;BME280;41113;41.882;12.530;2023-06-01T00:13:24;100987.41;;;18.15;84.55
54948;BME280;41113;41.882;12.530;2023-06-01T00:15:50;100993.19;;;18.12;84.46
54948;BME280;41113;41.882;12.530;2023-06-01T00:18:17;100981.84;;;18.08;84.78
54948;BME280;41113;41.882;12.530;2023-06-01T00:20:43;100989.31;;;18.06;84.77
54948;BME280;41113;41.882;12.530;2023-06-01T00:23:09;100980.84;;;18.01;84.82
54948;BME280;41113;41.882;12.530;2023-06-01T00:25:35;100983.97;;;17.90;85.20
54948;BME280;41113;41.882;12.530;2023-06-01T00:28:00;100973.84;;;18.07;84.51
54948;BME280;41113;41.882;12.530;2023-06-01T00:30:27;100975.81;;;17.90;84.83
54948;BME280;41113;41.882;12.530;2023-06-01T00:32:53;100975.31;;;17.86;84.94
54948;BME280;41113;41.882;12.530;2023-06-01T00:35:19;100983.31;;;17.80;84.97
54948;BME280;41113;41.882;12.530;2023-06-01T00:37:46;100975.00;;;17.81;84.48
54948;BME280;41113;41.882;12.530;2023-06-01T00:40:11;100979.44;;;17.74;84.84
54948;BME280;41113;41.882;12.530;2023-06-01T00:42:36;100975.19;;;17.71;84.83
54948;BME280;41113;41.882;12.530;2023-06-01T00:45:02;100975.19;;;17.71;84.57
54948;BME280;41113;41.882;12.530;2023-06-01T00:47:27;100972.13;;;17.66;84.45
54948;BME280;41113;41.882;12.530;2023-06-01T00:49:53;100975.38;;;17.62;85.04
54948;BME280;41113;41.882;12.530;2023-06-01T00:52:20;100973.50;;;17.70;84.29
54948;BME280;41113;41.882;12.530;2023-06-01T00:54:46;100971.13;;;17.76;83.60
54948;BME280;41113;41.882;12.530;2023-06-01T00:57:11;100976.19;;;17.79;83.34
54948;BME280;41113;41.882;12.530;2023-06-01T00:59:37;100968.00;;;17.87;82.85
54948;BME280;41113;41.882;12.530;2023-06-01T01:02:02;100971.59;;;17.79;82.69
54948;BME280;41113;41.882;12.530;2023-06-01T01:04:29;100969.59;;;17.73;82.77
54948;BME280;41113;41.882;12.530;2023-06-01T01:12:02;100964.69;;;17.68;82.87
54948;BME280;41113;41.882;12.530;2023-06-01T01:14:46;100976.53;;;17.76;82.46
54948;BME280;41113;41.882;12.530;2023-06-01T01:17:37;100975.16;;;17.80;82.39
54948;BME280;41113;41.882;12.530;2023-06-01T01:20:16;100972.84;;;17.60;83.05
54948;BME280;41113;41.882;12.530;2023-06-01T01:22:59;100980.47;;;17.65;83.17
54948;BME280;41113;41.882;12.530;2023-06-01T01:30:57;100970.66;;;17.48;83.61
54948;BME280;41113;41.882;12.530;2023-06-01T01:33:24;100961.31;;;17.50;83.54
54948;BME280;41113;41.882;12.530;2023-06-01T01:35:51;100974.22;;;17.48;83.64
54948;BME280;41113;41.882;12.530;2023-06-01T01:38:17;100973.72;;;17.45;83.52
54948;BME280;41113;41.882;12.530;2023-06-01T01:40:42;100972.88;;;17.44;83.84
54948;BME280;41113;41.882;12.530;2023-06-01T01:43:07;100980.03;;;17.37;84.19
54948;BME280;41113;41.882;12.530;2023-06-01T01:45:33;100968.69;;;17.25;84.65
54948;BME280;41113;41.882;12.530;2023-06-01T01:51:00;100973.59;;;17.30;84.64
54948;BME280;41113;41.882;12.530;2023-06-01T01:53:28;100974.13;;;17.25;84.03
54948;BME280;41113;41.882;12.530;2023-06-01T01:55:55;100965.47;;;17.14;84.34
54948;BME280;41113;41.882;12.530;2023-06-01T01:58:23;100971.75;;;17.14;84.24
54948;BME280;41113;41.882;12.530;2023-06-01T02:00:48;100970.38;;;17.34;83.05
54948;BME280;41113;41.882;12.530;2023-06-01T02:03:16;100973.88;;;17.51;82.07
54948;BME280;41113;41.882;12.530;2023-06-01T02:05:43;100971.19;;;17.43;81.91
54948;BME280;41113;41.882;12.530;2023-06-01T02:08:09;100971.19;;;17.43;81.88
54948;BME280;41113;41.882;12.530;2023-06-01T02:10:34;100968.81;;;17.40;81.84
54948;BME280;41113;41.882;12.530;2023-06-01T02:12:59;100974.78;;;17.35;81.01
54948;BME280;41113;41.882;12.530;2023-06-01T02:15:25;100964.41;;;17.39;81.08
54948;BME280;41113;41.882;12.530;2023-06-01T02:17:50;100967.81;;;17.41;81.14
54948;BME280;41113;41.882;12.530;2023-06-01T02:20:16;100962.66;;;17.54;80.81
54948;BME280;41113;41.882;12.530;2023-06-01T02:22:43;100962.34;;;17.57;80.65
54948;BME280;41113;41.882;12.530;2023-06-01T02:25:08;100952.84;;;17.45;81.48
54948;BME280;41113;41.882;12.530;2023-06-01T02:27:34;100963.34;;;17.48;81.81
54948;BME280;41113;41.882;12.530;2023-06-01T02:30:00;100961.34;;;17.42;81.98
54948;BME280;41113;41.882;12.530;2023-06-01T02:32:26;100962.03;;;17.44;81.83
54948;BME280;41113;41.882;12.530;2023-06-01T02:34:52;100965.41;;;17.46;82.14
54948;BME280;41113;41.882;12.530;2023-06-01T02:37:17;100966.81;;;17.34;82.90
54948;BME280;41113;41.882;12.530;2023-06-01T02:39:42;100964.97;;;17.18;85.33
54948;BME280;41113;41.882;12.530;2023-06-01T02:42:08;100960.56;;;17.09;86.23
54948;BME280;41113;41.882;12.530;2023-06-01T02:44:33;100961.09;;;17.04;86.68
54948;BME280;41113;41.882;12.530;2023-06-01T02:46:58;100962.09;;;17.11;87.08
54948;BME280;41113;41.882;12.530;2023-06-01T02:49:24;100961.09;;;17.04;88.59
54948;BME280;41113;41.882;12.530;2023-06-01T02:51:49;100957.03;;;17.00;88.82
54948;BME280;41113;41.882;12.530;2023-06-01T02:54:15;100958.34;;;17.13;88.28
54948;BME280;41113;41.882;12.530;2023-06-01T02:56:40;100960.75;;;17.07;88.83
54948;BME280;41113;41.882;12.530;2023-06-01T02:59:07;100957.69;;;17.02;90.18
54948;BME280;41113;41.882;12.530;2023-06-01T03:01:32;100951.78;;;16.99;91.05
54948;BME280;41113;41.882;12.530;2023-06-01T03:04:02;100959.06;;;16.98;91.28
54948;BME280;41113;41.882;12.530;2023-06-01T03:06:32;100960.09;;;16.97;92.16
54948;BME280;41113;41.882;12.530;2023-06-01T03:08:58;100963.81;;;16.96;92.27
54948;BME280;41113;41.882;12.530;2023-06-01T03:11:24;100962.47;;;16.92;93.12
54948;BME280;41113;41.882;12.530;2023-06-01T03:13:50;100968.22;;;16.89;93.68
54948;BME280;41113;41.882;12.530;2023-06-01T03:16:16;100969.59;;;16.93;93.00
54948;BME280;41113;41.882;12.530;2023-06-01T03:18:42;100969.59;;;16.93;93.24
54948;BME280;41113;41.882;12.530;2023-06-01T03:21:08;100969.25;;;16.96;93.08
54948;BME280;41113;41.882;12.530;2023-06-01T03:23:33;100964.81;;;17.03;92.33
54948;BME280;41113;41.882;12.530;2023-06-01T03:26:00;100976.38;;;16.97;93.27
54948;BME280;41113;41.882;12.530;2023-06-01T03:28:29;100975.69;;;16.95;93.58
54948;BME280;41113;41.882;12.530;2023-06-01T03:30:54;100970.09;;;16.97;93.43
54948;BME280;41113;41.882;12.530;2023-06-01T03:33:21;100982.47;;;16.91;94.17
54948;BME280;41113;41.882;12.530;2023-06-01T03:35:47;100979.75;;;16.99;93.26
54948;BME280;41113;41.882;12.530;2023-06-01T03:38:14;100979.06;;;17.05;92.98
54948;BME280;41113;41.882;12.530;2023-06-01T03:40:40;100976.19;;;17.07;93.15
54948;BME280;41113;41.882;12.530;2023-06-01T03:43:05;100971.94;;;17.04;93.46
54948;BME280;41113;41.882;12.530;2023-06-01T03:45:32;100981.09;;;17.11;92.92
54948;BME280;41113;41.882;12.530;2023-06-01T03:47:57;100981.44;;;17.08;92.58
54948;BME280;41113;41.882;12.530;2023-06-01T03:50:22;100993.66;;;17.04;93.42
54948;BME280;41113;41.882;12.530;2023-06-01T03:52:48;100988.88;;;17.15;92.36
54948;BME280;41113;41.882;12.530;2023-06-01T03:55:13;100993.28;;;17.16;92.62
54948;BME280;41113;41.882;12.530;2023-06-01T03:57:39;100994.31;;;17.15;92.52
54948;BME280;41113;41.882;12.530;2023-06-01T04:00:05;100992.59;;;17.30;91.83
54948;BME280;41113;41.882;12.530;2023-06-01T04:02:54;100991.19;;;17.50;90.62
54948;BME280;41113;41.882;12.530;2023-06-01T04:05:24;101004.25;;;17.55;90.01
54948;BME280;41113;41.882;12.530;2023-06-01T04:07:52;100998.81;;;17.55;90.04
54948;BME280;41113;41.882;12.530;2023-06-01T04:10:19;100996.63;;;17.50;90.52
54948;BME280;41113;41.882;12.530;2023-06-01T04:12:46;100997.63;;;17.65;89.79
54948;BME280;41113;41.882;12.530;2023-06-01T04:15:13;100995.59;;;17.51;89.93
54948;BME280;41113;41.882;12.530;2023-06-01T04:17:39;100995.50;;;17.28;91.63
54948;BME280;41113;41.882;12.530;2023-06-01T04:20:07;101008.75;;;17.07;92.36
54948;BME280;41113;41.882;12.530;2023-06-01T04:22:38;101004.16;;;17.07;93.36
54948;BME280;41113;41.882;12.530;2023-06-01T04:25:08;101001.28;;;17.01;93.22
54948;BME280;41113;41.882;12.530;2023-06-01T04:27:35;101009.59;;;16.91;94.47
54948;BME280;41113;41.882;12.530;2023-06-01T04:30:04;101013.84;;;16.94;94.67
54948;BME280;41113;41.882;12.530;2023-06-01T04:32:33;101004.50;;;16.96;94.16
54948;BME280;41113;41.882;12.530;2023-06-01T04:34:58;101004.00;;;16.93;94.09
54948;BME280;41113;41.882;12.530;2023-06-01T04:37:24;101009.78;;;16.98;94.15
54948;BME280;41113;41.882;12.530;2023-06-01T04:39:51;101008.56;;;17.17;92.33
54948;BME280;41113;41.882;12.530;2023-06-01T04:42:16;101013.31;;;17.31;91.35
54948;BME280;41113;41.882;12.530;2023-06-01T04:44:44;101003.13;;;17.33;89.93
54948;BME280;41113;41.882;12.530;2023-06-01T04:47:12;101009.91;;;17.37;89.28
54948;BME280;41113;41.882;12.530;2023-06-01T04:49:40;101006.69;;;17.25;88.17
54948;BME280;41113;41.882;12.530;2023-06-01T04:52:07;101009.25;;;17.27;88.50
54948;BME280;41113;41.882;12.530;2023-06-01T04:54:32;101011.44;;;17.31;87.85
54948;BME280;41113;41.882;12.530;2023-06-01T04:56:58;101021.75;;;17.44;86.89
54948;BME280;41113;41.882;12.530;2023-06-01T04:59:23;101006.16;;;17.38;85.76
54948;BME280;41113;41.882;12.530;2023-06-01T05:01:48;101006.84;;;17.32;84.93
54948;BME280;41113;41.882;12.530;2023-06-01T05:04:14;101009.91;;;17.29;84.17
54948;BME280;41113;41.882;12.530;2023-06-01T05:06:40;101008.56;;;17.33;84.51
54948;BME280;41113;41.882;12.530;2023-06-01T05:09:05;101011.09;;;17.34;83.99
54948;BME280;41113;41.882;12.530;2023-06-01T05:11:30;101004.13;;;17.40;83.65
54948;BME280;41113;41.882;12.530;2023-06-01T05:13:56;101004.44;;;17.45;82.51
54948;BME280;41113;41.882;12.530;2023-06-01T05:16:27;101008.00;;;17.46;82.39
54948;BME280;41113;41.882;12.530;2023-06-01T05:18:53;101014.28;;;17.46;82.71
54948;BME280;41113;41.882;12.530;2023-06-01T05:21:18;101016.97;;;17.54;82.30
54948;BME280;41113;41.882;12.530;2023-06-01T05:23:44;101020.03;;;17.67;81.72
54948;BME280;41113;41.882;12.530;2023-06-01T05:26:10;101021.38;;;17.63;81.34
54948;BME280;41113;41.882;12.530;2023-06-01T05:28:35;101016.66;;;17.57;81.39
54948;BME280;41113;41.882;12.530;2023-06-01T05:31:01;101015.28;;;17.61;80.89
54948;BME280;41113;41.882;12.530;2023-06-01T05:33:27;101017.31;;;17.67;79.35
54948;BME280;41113;41.882;12.530;2023-06-01T05:35:52;101012.22;;;17.72;79.49
54948;BME280;41113;41.882;12.530;2023-06-01T05:38:19;101015.28;;;17.69;79.76
54948;BME280;41113;41.882;12.530;2023-06-01T05:40:45;101017.66;;;17.64;81.53
54948;BME280;41113;41.882;12.530;2023-06-01T05:43:10;101012.38;;;17.71;82.17
54948;BME280;41113;41.882;12.530;2023-06-01T05:45:35;101008.75;;;17.87;82.19
54948;BME280;41113;41.882;12.530;2023-06-01T05:48:01;101009.94;;;17.92;82.18
54948;BME280;41113;41.882;12.530;2023-06-01T05:50:27;101010.13;;;17.91;82.64
54948;BME280;41113;41.882;12.530;2023-06-01T05:52:52;101010.31;;;17.89;83.63
54948;BME280;41113;41.882;12.530;2023-06-01T05:55:19;101019.75;;;18.01;82.91
54948;BME280;41113;41.882;12.530;2023-06-01T05:57:45;101015.66;;;18.06;83.32
54948;BME280;41113;41.882;12.530;2023-06-01T06:00:16;101024.97;;;18.11;83.51
54948;BME280;41113;41.882;12.530;2023-06-01T06:02:43;101021.88;;;18.22;83.28
54948;BME280;41113;41.882;12.530;2023-06-01T06:05:08;101018.81;;;18.17;83.98
54948;BME280;41113;41.882;12.530;2023-06-01T06:07:34;101017.47;;;18.13;84.16
54948;BME280;41113;41.882;12.530;2023-06-01T06:10:00;101022.72;;;18.23;83.91
54948;BME280;41113;41.882;12.530;2023-06-01T06:12:25;101024.53;;;18.30;83.25
54948;BME280;41113;41.882;12.530;2023-06-01T06:14:52;101021.78;;;18.39;83.30
54948;BME280;41113;41.882;12.530;2023-06-01T06:17:17;101031.91;;;18.45;82.91
54948;BME280;41113;41.882;12.530;2023-06-01T06:19:43;101029.50;;;18.50;82.51
54948;BME280;41113;41.882;12.530;2023-06-01T06:22:10;101035.25;;;18.63;82.37
54948;BME280;41113;41.882;12.530;2023-06-01T06:24:35;101040.53;;;18.56;82.66
54948;BME280;41113;41.882;12.530;2023-06-01T06:27:01;101034.91;;;18.58;82.94
54948;BME280;41113;41.882;12.530;2023-06-01T06:29:27;101038.38;;;18.44;83.70
54948;BME280;41113;41.882;12.530;2023-06-01T06:31:52;101033.38;;;18.32;84.62
54948;BME280;41113;41.882;12.530;2023-06-01T06:34:17;101038.00;;;18.55;83.88
54948;BME280;41113;41.882;12.530;2023-06-01T06:36:43;101040.88;;;18.84;82.76
54948;BME280;41113;41.882;12.530;2023-06-01T06:39:08;101038.84;;;18.86;82.25
54948;BME280;41113;41.882;12.530;2023-06-01T06:41:34;101040.94;;;18.76;82.38
54948;BME280;41113;41.882;12.530;2023-06-01T06:43:59;101048.78;;;18.71;82.66
54948;BME280;41113;41.882;12.530;2023-06-01T06:46:24;101043.94;;;18.81;82.10
54948;BME280;41113;41.882;12.530;2023-06-01T06:48:50;101043.72;;;18.91;80.64
54948;BME280;41113;41.882;12.530;2023-06-01T06:51:16;101042.53;;;18.93;79.48
54948;BME280;41113;41.882;12.530;2023-06-01T06:53:41;101045.75;;;19.12;79.04
54948;BME280;41113;41.882;12.530;2023-06-01T06:56:06;101042.56;;;19.46;77.79
54948;BME280;41113;41.882;12.530;2023-06-01T06:58:32;101046.13;;;19.84;76.07
54948;BME280;41113;41.882;12.530;2023-06-01T07:00:57;101050.31;;;19.57;74.37
54948;BME280;41113;41.882;12.530;2023-06-01T07:03:22;101044.41;;;19.68;75.50
54948;BME280;41113;41.882;12.530;2023-06-01T07:05:49;101048.16;;;19.82;72.89
54948;BME280;41113;41.882;12.530;2023-06-01T07:08:15;101054.38;;;20.05;71.97
54948;BME280;41113;41.882;12.530;2023-06-01T07:10:40;101057.16;;;20.12;71.32
54948;BME280;41113;41.882;12.530;2023-06-01T07:13:05;101056.63;;;20.02;70.83
54948;BME280;41113;41.882;12.530;2023-06-01T07:15:31;101059.06;;;20.11;70.73
54948;BME280;41113;41.882;12.530;2023-06-01T07:17:57;101053.66;;;20.47;70.56
54948;BME280;41113;41.882;12.530;2023-06-01T07:20:22;101041.44;;;21.22;67.04
54948;BME280;41113;41.882;12.530;2023-06-01T07:22:47;101040.50;;;21.64;65.08
54948;BME280;41113;41.882;12.530;2023-06-01T07:25:15;101039.84;;;21.90;65.55
54948;BME280;41113;41.882;12.530;2023-06-01T07:27:40;101041.28;;;22.21;64.45
54948;BME280;41113;41.882;12.530;2023-06-01T07:30:08;101029.19;;;22.50;61.32
54948;BME280;41113;41.882;12.530;2023-06-01T07:32:35;101034.78;;;22.83;62.57
54948;BME280;41113;41.882;12.530;2023-06-01T07:35:01;101028.69;;;23.27;58.47
54948;BME280;41113;41.882;12.530;2023-06-01T07:37:28;101030.56;;;23.40;60.88
54948;BME280;41113;41.882;12.530;2023-06-01T07:39:54;101043.34;;;24.12;59.12
54948;BME280;41113;41.882;12.530;2023-06-01T07:42:19;101036.34;;;24.67;57.46
54948;BME280;41113;41.882;12.530;2023-06-01T07:44:46;101033.78;;;25.10;56.44
54948;BME280;41113;41.882;12.530;2023-06-01T07:47:11;101039.66;;;24.44;56.27
54948;BME280;41113;41.882;12.530;2023-06-01T07:49:37;101031.28;;;25.02;55.60
54948;BME280;41113;41.882;12.530;2023-06-01T07:52:03;101033.88;;;24.91;54.70
54948;BME280;41113;41.882;12.530;2023-06-01T07:54:29;101024.91;;;25.08;54.81
54948;BME280;41113;41.882;12.530;2023-06-01T07:56:55;101023.28;;;25.26;53.45
54948;BME280;41113;41.882;12.530;2023-06-01T07:59:22;101020.81;;;24.86;51.98
54948;BME280;41113;41.882;12.530;2023-06-01T08:01:50;101022.75;;;24.79;53.79
54948;BME280;41113;41.882;12.530;2023-06-01T08:04:17;101016.00;;;24.43;50.86
54948;BME280;41113;41.882;12.530;2023-06-01T08:06:46;101010.81;;;24.60;53.90
54948;BME280;41113;41.882;12.530;2023-06-01T08:09:11;101012.66;;;25.29;52.58
54948;BME280;41113;41.882;12.530;2023-06-01T08:11:36;101016.91;;;25.00;52.48
54948;BME280;41113;41.882;12.530;2023-06-01T08:14:03;101011.66;;;25.24;52.02
54948;BME280;41113;41.882;12.530;2023-06-01T08:16:32;101010.06;;;25.59;51.22
54948;BME280;41113;41.882;12.530;2023-06-01T08:18:58;101010.44;;;25.69;50.87
54948;BME280;41113;41.882;12.530;2023-06-01T08:21:24;101014.97;;;25.32;51.65
54948;BME280;41113;41.882;12.530;2023-06-01T08:23:51;101013.78;;;25.22;51.82
54948;BME280;41113;41.882;12.530;2023-06-01T08:26:18;101017.06;;;25.37;50.59
54948;BME280;41113;41.882;12.530;2023-06-01T08:28:44;101014.38;;;25.05;51.31
54948;BME280;41113;41.882;12.530;2023-06-01T08:31:17;101018.50;;;25.15;50.38
54948;BME280;41113;41.882;12.530;2023-06-01T08:33:42;101013.66;;;25.35;49.58
54948;BME280;41113;41.882;12.530;2023-06-01T08:36:07;101022.22;;;25.27;48.65
54948;BME280;41113;41.882;12.530;2023-06-01T08:38:33;101019.34;;;25.40;49.80
54948;BME280;41113;41.882;12.530;2023-06-01T08:41:01;101013.09;;;25.51;50.06
54948;BME280;41113;41.882;12.530;2023-06-01T08:43:30;101013.16;;;25.88;49.34
54948;BME280;41113;41.882;12.530;2023-06-01T08:45:58;101003.47;;;25.85;47.15
54948;BME280;41113;41.882;12.530;2023-06-01T08:48:26;100999.41;;;25.69;48.40
54948;BME280;41113;41.882;12.530;2023-06-01T08:50:53;100995.59;;;25.70;47.57
54948;BME280;41113;41.882;12.530;2023-06-01T08:53:19;100994.84;;;25.57;47.32
54948;BME280;41113;41.882;12.530;2023-06-01T08:55:50;101003.31;;;25.55;46.39
54948;BME280;41113;41.882;12.530;2023-06-01T08:58:16;101004.00;;;25.76;47.23
54948;BME280;41113;41.882;12.530;2023-06-01T09:00:42;100991.78;;;25.65;46.86
54948;BME280;41113;41.882;12.530;2023-06-01T09:03:07;100990.56;;;25.61;46.49
54948;BME280;41113;41.882;12.530;2023-06-01T09:05:33;100994.91;;;25.50;43.98
54948;BME280;41113;41.882;12.530;2023-06-01T09:08:00;100993.66;;;25.28;46.41
54948;BME280;41113;41.882;12.530;2023-06-01T09:10:25;100992.09;;;25.38;45.62
54948;BME280;41113;41.882;12.530;2023-06-01T09:12:51;100987.13;;;25.65;45.88
54948;BME280;41113;41.882;12.530;2023-06-01T09:15:18;100992.84;;;25.89;45.69
54948;BME280;41113;41.882;12.530;2023-06-01T09:17:49;100989.63;;;25.92;45.89
54948;BME280;41113;41.882;12.530;2023-06-01T09:20:27;100991.91;;;25.95;44.88
54948;BME280;41113;41.882;12.530;2023-06-01T09:22:53;100998.63;;;25.99;46.47
54948;BME280;41113;41.882;12.530;2023-06-01T09:25:30;100987.63;;;26.17;45.54
54948;BME280;41113;41.882;12.530;2023-06-01T09:27:58;100994.00;;;26.29;46.28
54948;BME280;41113;41.882;12.530;2023-06-01T09:30:25;100980.44;;;26.34;46.07
54948;BME280;41113;41.882;12.530;2023-06-01T09:33:07;100982.44;;;26.09;42.29
54948;BME280;41113;41.882;12.530;2023-06-01T09:35:45;100981.41;;;26.22;44.47
54948;BME280;41113;41.882;12.530;2023-06-01T09:38:11;100993.13;;;26.35;45.24
54948;BME280;41113;41.882;12.530;2023-06-01T09:40:56;100981.66;;;26.39;45.33
54948;BME280;41113;41.882;12.530;2023-06-01T09:43:22;100985.16;;;26.27;45.17
54948;BME280;41113;41.882;12.530;2023-06-01T09:46:10;100985.41;;;26.08;42.81
54948;BME280;41113;41.882;12.530;2023-06-01T09:48:39;100977.91;;;26.15;45.14
54948;BME280;41113;41.882;12.530;2023-06-01T09:51:04;100979.03;;;26.25;44.80
54948;BME280;41113;41.882;12.530;2023-06-01T09:53:43;100973.53;;;26.44;42.71
54948;BME280;41113;41.882;12.530;2023-06-01T09:56:09;100966.13;;;26.56;44.83
54948;BME280;41113;41.882;12.530;2023-06-01T09:58:34;100972.63;;;26.61;44.63
54948;BME280;41113;41.882;12.530;2023-06-01T10:01:05;100967.34;;;26.60;44.12
54948;BME280;41113;41.882;12.530;2023-06-01T10:03:34;100963.97;;;26.58;43.92
54948;BME280;41113;41.882;12.530;2023-06-01T10:06:02;100961.34;;;26.51;43.81
54948;BME280;41113;41.882;12.530;2023-06-01T10:08:30;100962.34;;;26.69;43.74
54948;BME280;41113;41.882;12.530;2023-06-01T10:10:56;100961.41;;;26.86;43.47
54948;BME280;41113;41.882;12.530;2023-06-01T10:13:23;100954.94;;;26.92;43.50
54948;BME280;41113;41.882;12.530;2023-06-01T10:15:53;100949.19;;;26.82;43.14
54948;BME280;41113;41.882;12.530;2023-06-01T10:18:19;100950.69;;;26.66;43.93
54948;BME280;41113;41.882;12.530;2023-06-01T10:20:46;100951.94;;;26.71;44.07
54948;BME280;41113;41.882;12.530;2023-06-01T10:23:14;100948.94;;;26.72;44.02
54948;BME280;41113;41.882;12.530;2023-06-01T10:25:42;100946.78;;;26.74;43.54
54948;BME280;41113;41.882;12.530;2023-06-01T10:28:10;100940.31;;;26.69;43.80
54948;BME280;41113;41.882;12.530;2023-06-01T10:30:37;100948.09;;;26.72;43.98
54948;BME280;41113;41.882;12.530;2023-06-01T10:33:03;100940.81;;;26.77;43.75
54948;BME280;41113;41.882;12.530;2023-06-01T10:40:43;100939.72;;;26.90;43.65
54948;BME280;41113;41.882;12.530;2023-06-01T10:49:02;100933.38;;;26.89;43.08
54948;BME280;41113;41.882;12.530;2023-06-01T10:51:27;100937.22;;;26.88;42.95
54948;BME280;41113;41.882;12.530;2023-06-01T10:53:53;100934.56;;;26.82;41.81
54948;BME280;41113;41.882;12.530;2023-06-01T10:56:26;100934.44;;;26.77;40.20
54948;BME280;41113;41.882;12.530;2023-06-01T10:59:12;100931.81;;;26.70;39.43
54948;BME280;41113;41.882;12.530;2023-06-01T11:01:41;100927.63;;;26.79;42.39
54948;BME280;41113;41.882;12.530;2023-06-01T11:04:07;100927.38;;;26.92;42.35
54948;BME280;41113;41.882;12.530;2023-06-01T11:06:38;100914.69;;;26.91;41.70
54948;BME280;41113;41.882;12.530;2023-06-01T11:09:09;100916.34;;;26.81;40.95
54948;BME280;41113;41.882;12.530;2023-06-01T11:14:24;100907.84;;;26.71;41.62
54948;BME280;41113;41.882;12.530;2023-06-01T11:16:54;100909.41;;;26.78;41.41
54948;BME280;41113;41.882;12.530;2023-06-01T11:19:23;100912.28;;;26.83;40.87
54948;BME280;41113;41.882;12.530;2023-06-01T11:21:58;100910.25;;;26.90;38.09
54948;BME280;41113;41.882;12.530;2023-06-01T11:24:36;100906.94;;;27.00;38.67
54948;BME280;41113;41.882;12.530;2023-06-01T11:27:10;100916.88;;;27.13;38.76
54948;BME280;41113;41.882;12.530;2023-06-01T11:29:36;100899.03;;;27.15;40.43
54948;BME280;41113;41.882;12.530;2023-06-01T11:32:03;100895.53;;;27.20;40.48
54948;BME280;41113;41.882;12.530;2023-06-01T11:34:38;100881.66;;;27.15;39.22
54948;BME280;41113;41.882;12.530;2023-06-01T11:37:14;100888.34;;;27.19;38.28
54948;BME280;41113;41.882;12.530;2023-06-01T11:39:41;100889.31;;;27.13;40.58
54948;BME280;41113;41.882;12.530;2023-06-01T11:42:12;100890.63;;;26.98;40.82
54948;BME280;41113;41.882;12.530;2023-06-01T11:44:45;100891.78;;;26.79;39.83
54948;BME280;41113;41.882;12.530;2023-06-01T11:47:13;100890.69;;;26.57;39.60
54948;BME280;41113;41.882;12.530;2023-06-01T11:49:43;100888.75;;;26.46;40.81
54948;BME280;41113;41.882;12.530;2023-06-01T11:52:16;100880.34;;;26.41;40.76
54948;BME280;41113;41.882;12.530;2023-06-01T11:54:42;100875.94;;;26.51;40.61
54948;BME280;41113;41.882;12.530;2023-06-01T11:57:08;100877.66;;;26.76;40.45
54948;BME280;41113;41.882;12.530;2023-06-01T11:59:42;100873.03;;;27.00;39.51
54948;BME280;41113;41.882;12.530;2023-06-01T12:02:26;100868.22;;;27.07;39.54
54948;BME280;41113;41.882;12.530;2023-06-01T12:05:06;100861.13;;;26.99;40.84
54948;BME280;41113;41.882;12.530;2023-06-01T12:07:50;100857.75;;;26.97;42.14
54948;BME280;41113;41.882;12.530;2023-06-01T12:10:20;100854.16;;;26.96;42.34
54948;BME280;41113;41.882;12.530;2023-06-01T12:12:46;100847.81;;;26.96;42.51
54948;BME280;41113;41.882;12.530;2023-06-01T12:15:14;100856.56;;;26.93;42.72
54948;BME280;41113;41.882;12.530;2023-06-01T12:17:50;100861.00;;;26.82;43.55
54948;BME280;41113;41.882;12.530;2023-06-01T12:20:34;100851.41;;;26.73;43.81
54948;BME280;41113;41.882;12.530;2023-06-01T12:23:15;100845.16;;;26.66;43.73
54948;BME280;41113;41.882;12.530;2023-06-01T12:25:53;100834.88;;;26.73;43.75
54948;BME280;41113;41.882;12.530;2023-06-01T12:28:21;100845.66;;;26.86;43.87
54948;BME280;41113;41.882;12.530;2023-06-01T12:30:47;100833.19;;;26.95;43.93
54948;BME280;41113;41.882;12.530;2023-06-01T12:33:35;100824.97;;;27.07;43.08
54948;BME280;41113;41.882;12.530;2023-06-01T12:36:04;100824.72;;;27.09;43.46
54948;BME280;41113;41.882;12.530;2023-06-01T12:38:49;100824.81;;;27.14;43.66
54948;BME280;41113;41.882;12.530;2023-06-01T12:41:14;100821.34;;;27.18;43.69
54948;BME280;41113;41.882;12.530;2023-06-01T12:43:47;100822.16;;;27.19;43.61
54948;BME280;41113;41.882;12.530;2023-06-01T12:46:26;100817.34;;;27.26;43.26
54948;BME280;41113;41.882;12.530;2023-06-01T12:48:54;100817.25;;;27.33;43.63
54948;BME280;41113;41.882;12.530;2023-06-01T12:51:35;100817.84;;;27.35;43.49
54948;BME280;41113;41.882;12.530;2023-06-01T12:54:02;100816.75;;;27.36;43.53
54948;BME280;41113;41.882;12.530;2023-06-01T12:56:28;100803.81;;;27.36;42.71
54948;BME280;41113;41.882;12.530;2023-06-01T12:58:53;100806.44;;;27.31;43.49
54948;BME280;41113;41.882;12.530;2023-06-01T13:01:19;100803.22;;;27.34;43.43
54948;BME280;41113;41.882;12.530;2023-06-01T13:03:44;100798.78;;;27.33;43.64
54948;BME280;41113;41.882;12.530;2023-06-01T13:06:10;100788.44;;;27.28;42.96
54948;BME280;41113;41.882;12.530;2023-06-01T13:08:35;100791.94;;;27.24;43.86
54948;BME280;41113;41.882;12.530;2023-06-01T13:11:02;100792.09;;;27.17;43.58